sensor_id;sensor_type;location;lat;lon;timestamp;temperature;humidity
23083;DHT22;11709;52.420;10.538;2023-04-25T00:03:44;8.20;99.90
23083;DHT22;11709;52.420;10.538;2023-04-25T00:07:46;8.20;99.90
23083;DHT22;11709;52.420;10.538;2023-04-25T00:11:48;8.10;99.90
23083;DHT22;11709;52.420;10.538;2023-04-25T00:15:50;8.10;99.90
23083;DHT22;11709;52.420;10.538;2023-04-25T00:19:52;8.20;99.90
23083;DHT22;11709;52.420;10.538;2023-04-25T00:23:54;8.20;99.90
23083;DHT22;11709;52.420;10.538;2023-04-25T00:27:56;8.20;99.90
23083;DHT22;11709;52.420;10.538;2023-04-25T00:31:58;8.20;99.90
23083;DHT22;11709;52.420;10.538;2023-04-25T00:36:00;8.20;99.90
23083;DHT22;11709;52.420;10.538;2023-04-25T00:40:02;8.20;99.90
23083;DHT22;11709;52.420;10.538;2023-04-25T00:44:08;8.20;99.90
23083;DHT22;11709;52.420;10.538;2023-04-25T00:48:11;8.20;99.90
23083;DHT22;11709;52.420;10.538;2023-04-25T00:52:13;8.10;99.90
23083;DHT22;11709;52.420;10.538;2023-04-25T00:56:15;8.20;99.90
23083;DHT22;11709;52.420;10.538;2023-04-25T01:00:18;8.10;99.90
23083;DHT22;11709;52.420;10.538;2023-04-25T01:04:20;8.10;99.90
23083;DHT22;11709;52.420;10.538;2023-04-25T01:08:23;8.00;99.90
23083;DHT22;11709;52.420;10.538;2023-04-25T01:12:26;8.00;99.90
23083;DHT22;11709;52.420;10.538;2023-04-25T01:16:28;8.10;99.90
23083;DHT22;11709;52.420;10.538;2023-04-25T01:20:29;8.00;99.90
23083;DHT22;11709;52.420;10.538;2023-04-25T01:24:33;8.00;99.90
23083;DHT22;11709;52.420;10.538;2023-04-25T01:28:35;8.00;99.90
23083;DHT22;11709;52.420;10.538;2023-04-25T01:32:37;7.90;99.90
23083;DHT22;11709;52.420;10.538;2023-04-25T01:36:39;7.90;99.90
23083;DHT22;11709;52.420;10.538;2023-04-25T01:40:41;7.90;99.90
23083;DHT22;11709;52.420;10.538;2023-04-25T01:44:43;7.90;99.90
23083;DHT22;11709;52.420;10.538;2023-04-25T01:48:45;7.90;99.90
23083;DHT22;11709;52.420;10.538;2023-04-25T01:52:47;7.90;99.90
23083;DHT22;11709;52.420;10.538;2023-04-25T01:56:51;7.90;99.90
23083;DHT22;11709;52.420;10.538;2023-04-25T02:00:53;7.90;99.90
23083;DHT22;11709;52.420;10.538;2023-04-25T02:04:55;7.80;99.90
23083;DHT22;11709;52.420;10.538;2023-04-25T02:08:59;7.80;99.90
23083;DHT22;11709;52.420;10.538;2023-04-25T02:13:00;7.80;99.90
23083;DHT22;11709;52.420;10.538;2023-04-25T02:17:02;7.80;99.90
23083;DHT22;11709;52.420;10.538;2023-04-25T02:21:04;7.90;99.90
23083;DHT22;11709;52.420;10.538;2023-04-25T02:25:06;7.90;99.90
23083;DHT22;11709;52.420;10.538;2023-04-25T02:29:08;7.90;99.90
23083;DHT22;11709;52.420;10.538;2023-04-25T02:33:10;7.90;99.90
23083;DHT22;11709;52.420;10.538;2023-04-25T02:37:12;7.90;99.90
23083;DHT22;11709;52.420;10.538;2023-04-25T02:41:14;7.80;99.90
23083;DHT22;11709;52.420;10.538;2023-04-25T02:45:16;7.80;99.90
23083;DHT22;11709;52.420;10.538;2023-04-25T02:49:17;7.80;99.90
23083;DHT22;11709;52.420;10.538;2023-04-25T02:53:19;7.70;99.90
23083;DHT22;11709;52.420;10.538;2023-04-25T02:57:21;7.80;99.90
23083;DHT22;11709;52.420;10.538;2023-04-25T03:01:23;7.80;99.90
23083;DHT22;11709;52.420;10.538;2023-04-25T03:05:25;7.80;99.90
23083;DHT22;11709;52.420;10.538;2023-04-25T03:09:26;7.70;99.90
23083;DHT22;11709;52.420;10.538;2023-04-25T03:13:28;7.70;99.90
23083;DHT22;11709;52.420;10.538;2023-04-25T03:17:30;7.60;99.90
23083;DHT22;11709;52.420;10.538;2023-04-25T03:21:32;7.50;99.90
23083;DHT22;11709;52.420;10.538;2023-04-25T03:25:34;7.40;99.90
23083;DHT22;11709;52.420;10.538;2023-04-25T03:29:36;7.30;99.90
23083;DHT22;11709;52.420;10.538;2023-04-25T03:33:38;7.30;99.90
23083;DHT22;11709;52.420;10.538;2023-04-25T03:37:40;7.20;99.90
23083;DHT22;11709;52.420;10.538;2023-04-25T03:41:41;7.20;99.90
23083;DHT22;11709;52.420;10.538;2023-04-25T03:45:43;7.20;99.90
23083;DHT22;11709;52.420;10.538;2023-04-25T03:49:45;7.10;99.90
23083;DHT22;11709;52.420;10.538;2023-04-25T03:53:47;7.00;99.90
23083;DHT22;11709;52.420;10.538;2023-04-25T03:57:49;6.90;99.90
23083;DHT22;11709;52.420;10.538;2023-04-25T04:01:51;7.00;99.90
23083;DHT22;11709;52.420;10.538;2023-04-25T04:05:53;7.00;99.90
23083;DHT22;11709;52.420;10.538;2023-04-25T04:09:55;7.00;99.90
23083;DHT22;11709;52.420;10.538;2023-04-25T04:13:56;6.90;99.90
23083;DHT22;11709;52.420;10.538;2023-04-25T04:17:58;7.00;99.90
23083;DHT22;11709;52.420;10.538;2023-04-25T04:22:02;7.00;99.90
23083;DHT22;11709;52.420;10.538;2023-04-25T04:26:03;6.90;99.90
23083;DHT22;11709;52.420;10.538;2023-04-25T04:30:07;6.90;99.90
23083;DHT22;11709;52.420;10.538;2023-04-25T04:34:09;7.00;99.90
23083;DHT22;11709;52.420;10.538;2023-04-25T04:38:11;7.00;99.90
23083;DHT22;11709;52.420;10.538;2023-04-25T04:42:15;7.00;99.90
23083;DHT22;11709;52.420;10.538;2023-04-25T04:46:16;6.90;99.90
23083;DHT22;11709;52.420;10.538;2023-04-25T04:50:19;6.90;99.90
23083;DHT22;11709;52.420;10.538;2023-04-25T04:54:20;6.90;99.90
23083;DHT22;11709;52.420;10.538;2023-04-25T04:58:22;6.90;99.90
23083;DHT22;11709;52.420;10.538;2023-04-25T05:02:24;6.90;99.90
23083;DHT22;11709;52.420;10.538;2023-04-25T05:06:27;6.90;99.90
23083;DHT22;11709;52.420;10.538;2023-04-25T05:10:29;6.90;99.90
23083;DHT22;11709;52.420;10.538;2023-04-25T05:14:31;6.90;99.90
23083;DHT22;11709;52.420;10.538;2023-04-25T05:18:33;6.90;99.90
23083;DHT22;11709;52.420;10.538;2023-04-25T05:22:35;6.90;99.90
23083;DHT22;11709;52.420;10.538;2023-04-25T05:26:38;7.00;99.90
23083;DHT22;11709;52.420;10.538;2023-04-25T05:30:40;7.10;99.90
23083;DHT22;11709;52.420;10.538;2023-04-25T05:34:41;7.10;99.90
23083;DHT22;11709;52.420;10.538;2023-04-25T05:38:43;7.20;99.90
23083;DHT22;11709;52.420;10.538;2023-04-25T05:42:45;7.30;99.90
23083;DHT22;11709;52.420;10.538;2023-04-25T05:46:47;7.40;99.90
23083;DHT22;11709;52.420;10.538;2023-04-25T05:50:49;7.40;99.90
23083;DHT22;11709;52.420;10.538;2023-04-25T05:54:52;7.40;99.90
23083;DHT22;11709;52.420;10.538;2023-04-25T05:58:54;7.40;99.90
23083;DHT22;11709;52.420;10.538;2023-04-25T06:02:55;7.30;99.90
23083;DHT22;11709;52.420;10.538;2023-04-25T06:06:57;7.20;99.90
23083;DHT22;11709;52.420;10.538;2023-04-25T06:10:59;7.30;99.90
23083;DHT22;11709;52.420;10.538;2023-04-25T06:15:01;7.40;99.90
23083;DHT22;11709;52.420;10.538;2023-04-25T06:19:03;7.40;99.90
23083;DHT22;11709;52.420;10.538;2023-04-25T06:23:05;7.50;99.90
23083;DHT22;11709;52.420;10.538;2023-04-25T06:27:07;7.60;99.90
23083;DHT22;11709;52.420;10.538;2023-04-25T06:31:08;7.60;99.90
23083;DHT22;11709;52.420;10.538;2023-04-25T06:35:10;7.60;99.90
23083;DHT22;11709;52.420;10.538;2023-04-25T06:39:12;7.70;99.90
23083;DHT22;11709;52.420;10.538;2023-04-25T06:43:14;7.80;99.90
23083;DHT22;11709;52.420;10.538;2023-04-25T06:47:16;7.80;99.90
23083;DHT22;11709;52.420;10.538;2023-04-25T06:51:17;7.90;99.90
23083;DHT22;11709;52.420;10.538;2023-04-25T06:55:19;8.10;99.90
23083;DHT22;11709;52.420;10.538;2023-04-25T06:59:21;8.10;99.90
23083;DHT22;11709;52.420;10.538;2023-04-25T07:03:23;8.30;99.90
23083;DHT22;11709;52.420;10.538;2023-04-25T07:07:25;8.30;99.90
23083;DHT22;11709;52.420;10.538;2023-04-25T07:11:27;8.50;99.90
23083;DHT22;11709;52.420;10.538;2023-04-25T07:15:29;8.60;99.90
23083;DHT22;11709;52.420;10.538;2023-04-25T07:19:31;8.60;99.90
23083;DHT22;11709;52.420;10.538;2023-04-25T07:23:33;8.60;99.90
23083;DHT22;11709;52.420;10.538;2023-04-25T07:27:35;8.80;99.90
23083;DHT22;11709;52.420;10.538;2023-04-25T07:31:37;8.70;99.90
23083;DHT22;11709;52.420;10.538;2023-04-25T07:35:39;8.70;99.90
23083;DHT22;11709;52.420;10.538;2023-04-25T07:39:41;8.70;99.90
23083;DHT22;11709;52.420;10.538;2023-04-25T07:43:42;8.70;99.90
23083;DHT22;11709;52.420;10.538;2023-04-25T07:47:44;9.00;99.90
23083;DHT22;11709;52.420;10.538;2023-04-25T07:51:46;9.20;99.90
23083;DHT22;11709;52.420;10.538;2023-04-25T07:55:48;9.20;99.90
23083;DHT22;11709;52.420;10.538;2023-04-25T07:59:50;9.10;99.90
23083;DHT22;11709;52.420;10.538;2023-04-25T08:03:51;9.30;99.90
23083;DHT22;11709;52.420;10.538;2023-04-25T08:07:53;9.10;99.90
23083;DHT22;11709;52.420;10.538;2023-04-25T08:11:56;9.10;99.90
23083;DHT22;11709;52.420;10.538;2023-04-25T08:15:57;9.00;99.90
23083;DHT22;11709;52.420;10.538;2023-04-25T08:19:59;9.00;99.90
23083;DHT22;11709;52.420;10.538;2023-04-25T08:24:01;9.00;99.90
23083;DHT22;11709;52.420;10.538;2023-04-25T08:28:03;8.90;99.90
23083;DHT22;11709;52.420;10.538;2023-04-25T08:32:04;8.80;99.90
23083;DHT22;11709;52.420;10.538;2023-04-25T08:36:07;8.70;99.90
23083;DHT22;11709;52.420;10.538;2023-04-25T08:40:11;8.70;99.90
23083;DHT22;11709;52.420;10.538;2023-04-25T08:44:12;9.00;99.90
23083;DHT22;11709;52.420;10.538;2023-04-25T08:48:15;9.10;99.90
23083;DHT22;11709;52.420;10.538;2023-04-25T08:52:19;9.30;99.90
23083;DHT22;11709;52.420;10.538;2023-04-25T08:56:20;9.40;99.90
23083;DHT22;11709;52.420;10.538;2023-04-25T09:00:24;9.70;99.90
23083;DHT22;11709;52.420;10.538;2023-04-25T09:04:25;9.80;99.90
23083;DHT22;11709;52.420;10.538;2023-04-25T09:08:27;9.90;99.90
23083;DHT22;11709;52.420;10.538;2023-04-25T09:12:29;10.10;99.90
23083;DHT22;11709;52.420;10.538;2023-04-25T09:16:31;10.20;99.90
23083;DHT22;11709;52.420;10.538;2023-04-25T09:20:33;10.00;99.90
23083;DHT22;11709;52.420;10.538;2023-04-25T09:24:40;9.60;99.90
23083;DHT22;11709;52.420;10.538;2023-04-25T09:28:46;9.40;99.90
23083;DHT22;11709;52.420;10.538;2023-04-25T09:32:51;9.30;99.90
23083;DHT22;11709;52.420;10.538;2023-04-25T09:36:54;9.60;99.90
23083;DHT22;11709;52.420;10.538;2023-04-25T09:40:56;9.60;99.90
23083;DHT22;11709;52.420;10.538;2023-04-25T09:44:58;9.40;99.90
23083;DHT22;11709;52.420;10.538;2023-04-25T09:49:06;9.30;99.90
23083;DHT22;11709;52.420;10.538;2023-04-25T09:53:05;9.20;99.90
23083;DHT22;11709;52.420;10.538;2023-04-25T09:57:13;9.20;99.90
23083;DHT22;11709;52.420;10.538;2023-04-25T10:01:11;9.10;99.90
23083;DHT22;11709;52.420;10.538;2023-04-25T10:05:13;9.50;99.90
23083;DHT22;11709;52.420;10.538;2023-04-25T10:09:16;9.00;99.90
23083;DHT22;11709;52.420;10.538;2023-04-25T10:13:19;9.10;99.90
23083;DHT22;11709;52.420;10.538;2023-04-25T10:17:21;9.20;99.90
23083;DHT22;11709;52.420;10.538;2023-04-25T10:21:24;9.60;99.90
23083;DHT22;11709;52.420;10.538;2023-04-25T10:25:27;10.30;99.90
23083;DHT22;11709;52.420;10.538;2023-04-25T10:29:29;11.00;99.90
23083;DHT22;11709;52.420;10.538;2023-04-25T10:33:35;11.50;99.90
23083;DHT22;11709;52.420;10.538;2023-04-25T10:37:37;11.80;99.90
23083;DHT22;11709;52.420;10.538;2023-04-25T10:41:57;11.40;99.90
23083;DHT22;11709;52.420;10.538;2023-04-25T10:45:51;10.90;99.90
23083;DHT22;11709;52.420;10.538;2023-04-25T10:49:53;10.60;99.90
23083;DHT22;11709;52.420;10.538;2023-04-25T10:57:59;10.00;99.90
23083;DHT22;11709;52.420;10.538;2023-04-25T11:02:02;9.70;99.90
23083;DHT22;11709;52.420;10.538;2023-04-25T11:06:06;9.70;99.90
23083;DHT22;11709;52.420;10.538;2023-04-25T11:10:09;9.90;99.90
23083;DHT22;11709;52.420;10.538;2023-04-25T11:14:10;9.80;99.90
23083;DHT22;11709;52.420;10.538;2023-04-25T11:18:15;9.70;99.90
23083;DHT22;11709;52.420;10.538;2023-04-25T11:22:16;9.60;99.90
23083;DHT22;11709;52.420;10.538;2023-04-25T11:26:19;9.60;99.90
23083;DHT22;11709;52.420;10.538;2023-04-25T11:30:21;9.30;99.90
23083;DHT22;11709;52.420;10.538;2023-04-25T11:34:24;9.20;99.90
23083;DHT22;11709;52.420;10.538;2023-04-25T11:38:27;9.00;99.90
23083;DHT22;11709;52.420;10.538;2023-04-25T11:42:29;8.90;99.90
23083;DHT22;11709;52.420;10.538;2023-04-25T11:46:33;9.00;99.90
23083;DHT22;11709;52.420;10.538;2023-04-25T11:50:35;9.20;99.90
23083;DHT22;11709;52.420;10.538;2023-04-25T11:54:38;9.40;99.90
23083;DHT22;11709;52.420;10.538;2023-04-25T11:58:59;9.50;99.90
23083;DHT22;11709;52.420;10.538;2023-04-25T12:03:04;10.30;99.90
23083;DHT22;11709;52.420;10.538;2023-04-25T12:07:09;11.60;99.90
23083;DHT22;11709;52.420;10.538;2023-04-25T12:11:19;12.40;99.90
23083;DHT22;11709;52.420;10.538;2023-04-25T12:15:13;12.70;99.90
23083;DHT22;11709;52.420;10.538;2023-04-25T12:19:20;13.20;99.90
23083;DHT22;11709;52.420;10.538;2023-04-25T12:23:25;13.30;99.90
23083;DHT22;11709;52.420;10.538;2023-04-25T12:27:27;12.60;98.60
23083;DHT22;11709;52.420;10.538;2023-04-25T12:31:30;12.50;99.90
23083;DHT22;11709;52.420;10.538;2023-04-25T12:35:33;11.90;99.90
23083;DHT22;11709;52.420;10.538;2023-04-25T12:39:35;11.50;99.90
23083;DHT22;11709;52.420;10.538;2023-04-25T12:43:37;11.20;99.90
23083;DHT22;11709;52.420;10.538;2023-04-25T12:47:39;11.30;99.90
23083;DHT22;11709;52.420;10.538;2023-04-25T12:51:41;11.30;99.90
23083;DHT22;11709;52.420;10.538;2023-04-25T12:55:42;12.30;99.90
23083;DHT22;11709;52.420;10.538;2023-04-25T12:59:46;13.30;99.90
23083;DHT22;11709;52.420;10.538;2023-04-25T13:03:48;13.60;97.90
23083;DHT22;11709;52.420;10.538;2023-04-25T13:07:50;14.10;96.70
23083;DHT22;11709;52.420;10.538;2023-04-25T13:11:52;14.00;94.30
23083;DHT22;11709;52.420;10.538;2023-04-25T13:15:54;13.60;92.30
23083;DHT22;11709;52.420;10.538;2023-04-25T13:19:56;12.70;91.70
23083;DHT22;11709;52.420;10.538;2023-04-25T13:23:58;11.30;93.40
23083;DHT22;11709;52.420;10.538;2023-04-25T13:27:59;11.60;95.00
23083;DHT22;11709;52.420;10.538;2023-04-25T13:32:01;11.50;96.80
23083;DHT22;11709;52.420;10.538;2023-04-25T13:36:03;11.50;99.50
23083;DHT22;11709;52.420;10.538;2023-04-25T13:40:07;11.60;99.40
23083;DHT22;11709;52.420;10.538;2023-04-25T13:44:10;12.20;98.10
23083;DHT22;11709;52.420;10.538;2023-04-25T13:48:12;12.90;93.60
23083;DHT22;11709;52.420;10.538;2023-04-25T13:52:13;13.40;93.60
23083;DHT22;11709;52.420;10.538;2023-04-25T13:56:15;14.30;91.70
23083;DHT22;11709;52.420;10.538;2023-04-25T14:00:17;14.40;87.40
23083;DHT22;11709;52.420;10.538;2023-04-25T14:04:19;14.70;85.00
23083;DHT22;11709;52.420;10.538;2023-04-25T14:08:21;15.00;81.90
23083;DHT22;11709;52.420;10.538;2023-04-25T14:12:23;15.20;81.00
23083;DHT22;11709;52.420;10.538;2023-04-25T14:16:25;15.20;79.80
23083;DHT22;11709;52.420;10.538;2023-04-25T14:20:26;14.10;79.50
23083;DHT22;11709;52.420;10.538;2023-04-25T14:24:28;13.30;82.30
23083;DHT22;11709;52.420;10.538;2023-04-25T14:28:30;12.20;96.20
23083;DHT22;11709;52.420;10.538;2023-04-25T14:32:33;11.20;99.90
23083;DHT22;11709;52.420;10.538;2023-04-25T14:36:35;10.90;99.90
23083;DHT22;11709;52.420;10.538;2023-04-25T14:40:37;10.40;99.90
23083;DHT22;11709;52.420;10.538;2023-04-25T14:44:39;10.10;99.90
23083;DHT22;11709;52.420;10.538;2023-04-25T14:48:40;10.20;99.90
23083;DHT22;11709;52.420;10.538;2023-04-25T14:52:43;10.70;99.90
23083;DHT22;11709;52.420;10.538;2023-04-25T14:56:45;11.60;99.90
23083;DHT22;11709;52.420;10.538;2023-04-25T15:00:47;11.90;99.90
23083;DHT22;11709;52.420;10.538;2023-04-25T15:04:49;11.70;99.90
23083;DHT22;11709;52.420;10.538;2023-04-25T15:08:51;11.20;99.90
23083;DHT22;11709;52.420;10.538;2023-04-25T15:12:53;10.80;99.90
23083;DHT22;11709;52.420;10.538;2023-04-25T15:16:55;10.70;99.90
23083;DHT22;11709;52.420;10.538;2023-04-25T15:20:57;11.20;99.90
23083;DHT22;11709;52.420;10.538;2023-04-25T15:24:58;11.80;99.90
23083;DHT22;11709;52.420;10.538;2023-04-25T15:29:00;12.30;99.90
23083;DHT22;11709;52.420;10.538;2023-04-25T15:33:04;12.80;99.90
23083;DHT22;11709;52.420;10.538;2023-04-25T15:37:06;12.60;99.90
23083;DHT22;11709;52.420;10.538;2023-04-25T15:41:07;12.30;99.90
23083;DHT22;11709;52.420;10.538;2023-04-25T15:45:10;11.80;99.90
23083;DHT22;11709;52.420;10.538;2023-04-25T15:49:12;11.30;99.90
23083;DHT22;11709;52.420;10.538;2023-04-25T15:53:13;11.00;99.90
23083;DHT22;11709;52.420;10.538;2023-04-25T15:57:16;10.60;99.90
23083;DHT22;11709;52.420;10.538;2023-04-25T16:01:17;10.40;99.90
23083;DHT22;11709;52.420;10.538;2023-04-25T16:05:21;10.10;99.90
23083;DHT22;11709;52.420;10.538;2023-04-25T16:09:23;10.10;99.90
23083;DHT22;11709;52.420;10.538;2023-04-25T16:13:25;10.10;99.90
23083;DHT22;11709;52.420;10.538;2023-04-25T16:17:27;10.20;99.90
23083;DHT22;11709;52.420;10.538;2023-04-25T16:21:29;10.40;99.90
23083;DHT22;11709;52.420;10.538;2023-04-25T16:25:31;10.30;99.90
23083;DHT22;11709;52.420;10.538;2023-04-25T16:29:33;10.20;99.90
23083;DHT22;11709;52.420;10.538;2023-04-25T16:33:35;10.20;99.90
23083;DHT22;11709;52.420;10.538;2023-04-25T16:37:37;10.00;99.90
23083;DHT22;11709;52.420;10.538;2023-04-25T16:41:39;9.90;99.90
23083;DHT22;11709;52.420;10.538;2023-04-25T16:45:41;9.90;99.90
23083;DHT22;11709;52.420;10.538;2023-04-25T16:49:43;9.70;99.90
23083;DHT22;11709;52.420;10.538;2023-04-25T16:53:45;9.70;99.90
23083;DHT22;11709;52.420;10.538;2023-04-25T16:57:48;9.80;99.90
23083;DHT22;11709;52.420;10.538;2023-04-25T17:01:49;9.90;99.90
23083;DHT22;11709;52.420;10.538;2023-04-25T17:05:52;9.80;99.90
23083;DHT22;11709;52.420;10.538;2023-04-25T17:09:57;9.70;99.90
23083;DHT22;11709;52.420;10.538;2023-04-25T17:13:59;9.70;99.90
23083;DHT22;11709;52.420;10.538;2023-04-25T17:18:01;9.50;99.90
23083;DHT22;11709;52.420;10.538;2023-04-25T17:22:03;9.40;99.90
23083;DHT22;11709;52.420;10.538;2023-04-25T17:26:05;9.40;99.90
23083;DHT22;11709;52.420;10.538;2023-04-25T17:30:07;9.30;99.90
23083;DHT22;11709;52.420;10.538;2023-04-25T17:34:09;9.40;99.90
23083;DHT22;11709;52.420;10.538;2023-04-25T17:38:12;9.40;99.90
23083;DHT22;11709;52.420;10.538;2023-04-25T17:42:14;9.50;99.90
23083;DHT22;11709;52.420;10.538;2023-04-25T17:46:16;9.70;99.90
23083;DHT22;11709;52.420;10.538;2023-04-25T17:50:18;9.60;99.90
23083;DHT22;11709;52.420;10.538;2023-04-25T17:54:20;9.60;99.90
23083;DHT22;11709;52.420;10.538;2023-04-25T17:58:25;9.50;99.90
23083;DHT22;11709;52.420;10.538;2023-04-25T18:02:27;9.40;99.90
23083;DHT22;11709;52.420;10.538;2023-04-25T18:06:29;9.10;99.90
23083;DHT22;11709;52.420;10.538;2023-04-25T18:10:32;9.10;99.90
23083;DHT22;11709;52.420;10.538;2023-04-25T18:14:34;8.90;99.90
23083;DHT22;11709;52.420;10.538;2023-04-25T18:18:36;8.90;99.90
23083;DHT22;11709;52.420;10.538;2023-04-25T18:22:38;8.70;99.90
23083;DHT22;11709;52.420;10.538;2023-04-25T18:26:40;8.60;99.90
23083;DHT22;11709;52.420;10.538;2023-04-25T18:30:42;8.60;99.90
23083;DHT22;11709;52.420;10.538;2023-04-25T18:34:44;8.40;99.90
23083;DHT22;11709;52.420;10.538;2023-04-25T18:38:47;8.30;99.90
23083;DHT22;11709;52.420;10.538;2023-04-25T18:42:51;8.10;99.90
23083;DHT22;11709;52.420;10.538;2023-04-25T18:46:52;8.00;99.90
23083;DHT22;11709;52.420;10.538;2023-04-25T18:50:54;7.90;99.90
23083;DHT22;11709;52.420;10.538;2023-04-25T18:54:56;7.70;99.90
23083;DHT22;11709;52.420;10.538;2023-04-25T18:58:58;7.70;99.90
23083;DHT22;11709;52.420;10.538;2023-04-25T19:03:00;7.60;99.90
23083;DHT22;11709;52.420;10.538;2023-04-25T19:07:03;7.50;99.90
23083;DHT22;11709;52.420;10.538;2023-04-25T19:11:05;7.50;99.90
23083;DHT22;11709;52.420;10.538;2023-04-25T19:15:07;7.30;99.90
23083;DHT22;11709;52.420;10.538;2023-04-25T19:19:10;7.20;99.90
23083;DHT22;11709;52.420;10.538;2023-04-25T19:23:12;7.20;99.90
23083;DHT22;11709;52.420;10.538;2023-04-25T19:27:14;7.70;99.90
23083;DHT22;11709;52.420;10.538;2023-04-25T19:31:16;7.10;99.90
23083;DHT22;11709;52.420;10.538;2023-04-25T19:35:18;7.00;99.90
23083;DHT22;11709;52.420;10.538;2023-04-25T19:39:20;7.00;99.90
23083;DHT22;11709;52.420;10.538;2023-04-25T19:43:22;6.90;99.90
23083;DHT22;11709;52.420;10.538;2023-04-25T19:47:24;6.80;99.90
23083;DHT22;11709;52.420;10.538;2023-04-25T19:51:28;6.80;99.90
23083;DHT22;11709;52.420;10.538;2023-04-25T19:55:30;6.90;99.90
23083;DHT22;11709;52.420;10.538;2023-04-25T19:59:32;6.80;99.90
23083;DHT22;11709;52.420;10.538;2023-04-25T20:03:34;6.80;99.90
23083;DHT22;11709;52.420;10.538;2023-04-25T20:07:36;6.70;99.90
23083;DHT22;11709;52.420;10.538;2023-04-25T20:11:38;6.70;99.90
23083;DHT22;11709;52.420;10.538;2023-04-25T20:15:39;6.70;99.90
23083;DHT22;11709;52.420;10.538;2023-04-25T20:19:42;6.50;99.90
23083;DHT22;11709;52.420;10.538;2023-04-25T20:23:44;6.40;99.90
23083;DHT22;11709;52.420;10.538;2023-04-25T20:27:46;6.30;99.90
23083;DHT22;11709;52.420;10.538;2023-04-25T20:31:48;6.20;99.90
23083;DHT22;11709;52.420;10.538;2023-04-25T20:35:50;6.10;99.90
23083;DHT22;11709;52.420;10.538;2023-04-25T20:39:52;6.10;99.90
23083;DHT22;11709;52.420;10.538;2023-04-25T20:43:54;6.00;99.90
23083;DHT22;11709;52.420;10.538;2023-04-25T20:47:56;6.00;99.90
23083;DHT22;11709;52.420;10.538;2023-04-25T20:51:58;5.80;99.90
23083;DHT22;11709;52.420;10.538;2023-04-25T20:56:01;5.80;99.90
23083;DHT22;11709;52.420;10.538;2023-04-25T21:00:04;5.70;99.90
23083;DHT22;11709;52.420;10.538;2023-04-25T21:04:07;5.70;99.90
23083;DHT22;11709;52.420;10.538;2023-04-25T21:08:09;5.60;99.90
23083;DHT22;11709;52.420;10.538;2023-04-25T21:12:11;5.60;99.90
23083;DHT22;11709;52.420;10.538;2023-04-25T21:16:13;5.60;99.90
23083;DHT22;11709;52.420;10.538;2023-04-25T21:20:16;5.60;99.90
23083;DHT22;11709;52.420;10.538;2023-04-25T21:24:18;5.50;99.90
23083;DHT22;11709;52.420;10.538;2023-04-25T21:28:21;5.50;99.90
23083;DHT22;11709;52.420;10.538;2023-04-25T21:32:23;5.40;99.90
23083;DHT22;11709;52.420;10.538;2023-04-25T21:36:26;5.40;99.90
23083;DHT22;11709;52.420;10.538;2023-04-25T21:40:28;5.40;99.90
23083;DHT22;11709;52.420;10.538;2023-04-25T21:44:29;5.30;99.90
23083;DHT22;11709;52.420;10.538;2023-04-25T21:48:32;5.30;99.90
23083;DHT22;11709;52.420;10.538;2023-04-25T21:52:34;5.20;99.90
23083;DHT22;11709;52.420;10.538;2023-04-25T21:56:36;5.20;99.90
23083;DHT22;11709;52.420;10.538;2023-04-25T22:00:38;4.70;99.90
23083;DHT22;11709;52.420;10.538;2023-04-25T22:04:40;5.10;99.90
23083;DHT22;11709;52.420;10.538;2023-04-25T22:08:43;5.10;99.90
23083;DHT22;11709;52.420;10.538;2023-04-25T22:12:45;5.00;99.90
23083;DHT22;11709;52.420;10.538;2023-04-25T22:16:48;5.00;99.90
23083;DHT22;11709;52.420;10.538;2023-04-25T22:20:50;5.00;99.90
23083;DHT22;11709;52.420;10.538;2023-04-25T22:24:53;4.90;99.90
23083;DHT22;11709;52.420;10.538;2023-04-25T22:28:54;5.00;99.90
23083;DHT22;11709;52.420;10.538;2023-04-25T22:32:56;4.80;99.90
23083;DHT22;11709;52.420;10.538;2023-04-25T22:36:58;4.80;99.90
23083;DHT22;11709;52.420;10.538;2023-04-25T22:41:00;4.80;99.90
23083;DHT22;11709;52.420;10.538;2023-04-25T22:45:02;4.70;99.90
23083;DHT22;11709;52.420;10.538;2023-04-25T22:49:04;4.70;99.90
23083;DHT22;11709;52.420;10.538;2023-04-25T22:53:08;4.60;99.90
23083;DHT22;11709;52.420;10.538;2023-04-25T22:57:10;4.60;99.90
23083;DHT22;11709;52.420;10.538;2023-04-25T23:01:12;4.60;99.90
23083;DHT22;11709;52.420;10.538;2023-04-25T23:05:14;4.50;99.90
23083;DHT22;11709;52.420;10.538;2023-04-25T23:09:16;4.50;99.90
23083;DHT22;11709;52.420;10.538;2023-04-25T23:13:17;4.50;99.90
23083;DHT22;11709;52.420;10.538;2023-04-25T23:17:19;4.50;99.90
23083;DHT22;11709;52.420;10.538;2023-04-25T23:21:21;4.50;99.90
23083;DHT22;11709;52.420;10.538;2023-04-25T23:25:23;4.50;99.90
23083;DHT22;11709;52.420;10.538;2023-04-25T23:29:26;4.40;99.90
23083;DHT22;11709;52.420;10.538;2023-04-25T23:33:28;4.40;99.90
23083;DHT22;11709;52.420;10.538;2023-04-25T23:37:33;4.40;99.90
23083;DHT22;11709;52.420;10.538;2023-04-25T23:41:35;4.30;99.90
23083;DHT22;11709;52.420;10.538;2023-04-25T23:45:36;4.20;99.90
23083;DHT22;11709;52.420;10.538;2023-04-25T23:49:38;4.20;99.90
23083;DHT22;11709;52.420;10.538;2023-04-25T23:53:40;4.10;99.90
23083;DHT22;11709;52.420;10.538;2023-04-25T23:57:42;4.10;99.90
